首页
METAR-TAF:

METAR-TAF

机场 :

道森, 育康省, 加拿大

纬度: 64-03N, 经度: 139-08W, 海拔: 370米

当前天气观测

该预报发布于3小时和40分钟前的22:00 UTC
风速5节,风向西南
温度 -4°C
湿度 68%
气压 1000 hPa
能見度: 12.9公里
散云层高于1400英尺
阴天层高于3000英尺
小雪

METAR: CYDA 062200Z 23005KT 8SM -SN SCT014 OVC030 M04/M09 A2953 RMK SC3SC5 CM UNMEASURABLE DUE DRIFTED SNOW/3.4 MWE LST STFD OBS/NXT 071300Z SLP024

时间: 18:40 (01:40 UTC)

预报

该预报发布于4小时和25分钟前的21:15 UTC
预报有效从06日的 21点(UTC)到 06日的 22点(UTC)
风速10节,风向西转西南,有时为20节阵风
能見度: 9.7公里
阴天层高于3000英尺
小雪
短暂存在
从 06日的 21点(UTC)到 06日的 22点(UTC)
阴天层高于2000英尺
小阵雪

TAF: CYDA 062115Z 0621/0622 25010G20KT 6SM -SN OVC030 TEMPO 0621/0622 11/2SM -SHSN OVC020 RMK NXT FCST WILL BE ISSUED AT 071445Z

超过4000个机场的气象观测和天气预报(METAR&TAF报告)。

可查询的气象台以黄色和红色小点在地图上表示。

将鼠标移到小点上方,可查看气象台名称。

然后点击查看天气观测和预报。

如需切换地图:点击带黑十字的绿色按钮放大地图;点击带横线的绿色按钮缩小地图;或者点击绿色箭头查看邻近地区的地图。


METAR-TAF: